Time;durP1;ratioP1;P1;durP2;ratioP2;P2;SDS_P1;SDS_P2;PMS_P1;PMS_P2;Temp;Humidity;BMP_temperature;BMP_pressure;BME280_temperature;BME280_humidity;BME280_pressure;Samples;Min_cycle;Max_cycle;Signal;HPM_P1;HPM_P2
2022/04/12 00:00:09;;;;;;;;;;;20.40;39.10;;;;;;5074284;28;19912;-71
2022/04/12 00:02:35;;;;;;;;;;;20.40;39.20;;;;;;5075175;28;19912;-70
2022/04/12 00:05:00;;;;;;;;;;;20.40;39.30;;;;;;5075210;28;19911;-71
2022/04/12 00:07:26;;;;;;;;;;;20.40;39.20;;;;;;5074773;28;20018;-70
2022/04/12 00:09:51;;;;;;;;;;;20.30;39.30;;;;;;5074452;28;20348;-70
2022/04/12 00:12:17;;;;;;;;;;;20.30;39.50;;;;;;5074515;28;19966;-67
2022/04/12 00:14:42;;;;;;;;;;;20.30;39.40;;;;;;5074976;28;19908;-71
2022/04/12 00:19:52;;;;;;;;;;;20.30;39.50;;;;;;5075978;28;19911;-67
2022/04/12 00:22:18;;;;;;;;;;;20.30;39.60;;;;;;5076342;28;19908;-68
2022/04/12 00:24:43;;;;;;;;;;;20.40;39.60;;;;;;5074822;28;19908;-68
2022/04/12 00:27:09;;;;;;;;;;;20.40;39.60;;;;;;5074723;28;19904;-69
2022/04/12 00:29:34;;;;;;;;;;;20.40;39.60;;;;;;5074110;28;19939;-69
2022/04/12 00:32:00;;;;;;;;;;;20.30;39.60;;;;;;5074465;28;19909;-69
2022/04/12 00:34:26;;;;;;;;;;;20.30;39.60;;;;;;5074661;28;19913;-69
2022/04/12 00:36:51;;;;;;;;;;;20.30;39.70;;;;;;5074641;28;19950;-69
2022/04/12 00:39:17;;;;;;;;;;;20.30;39.60;;;;;;5073923;28;19950;-69
2022/04/12 00:41:43;;;;;;;;;;;20.30;39.40;;;;;;5074512;28;20351;-69
2022/04/12 00:44:08;;;;;;;;;;;20.30;39.70;;;;;;5074400;28;19915;-69
2022/04/12 00:46:34;;;;;;;;;;;20.30;39.80;;;;;;5074366;28;19908;-69
2022/04/12 00:48:59;;;;;;;;;;;20.30;39.60;;;;;;5073394;28;19913;-69
2022/04/12 00:51:25;;;;;;;;;;;20.20;39.50;;;;;;5073917;28;19916;-68
2022/04/12 00:53:51;;;;;;;;;;;20.20;39.50;;;;;;5074013;28;19940;-68
2022/04/12 00:56:17;;;;;;;;;;;20.20;39.70;;;;;;5075418;28;19953;-68
2022/04/12 00:58:46;;;;;;;;;;;20.20;39.70;;;;;;5073697;28;19915;-68
2022/04/12 01:01:12;;;;;;;;;;;20.20;39.80;;;;;;5073998;28;19904;-68
2022/04/12 01:03:37;;;;;;;;;;;20.20;39.60;;;;;;5073917;28;19908;-68
2022/04/12 01:06:03;;;;;;;;;;;20.20;39.70;;;;;;5072952;28;19905;-67
2022/04/12 01:08:28;;;;;;;;;;;20.20;39.60;;;;;;5073458;28;19918;-68
2022/04/12 01:10:54;;;;;;;;;;;20.20;39.60;;;;;;5073353;28;20414;-67
2022/04/12 01:13:20;;;;;;;;;;;20.20;39.90;;;;;;5074114;28;20340;-67
2022/04/12 01:15:46;;;;;;;;;;;20.20;39.80;;;;;;5073616;28;19908;-67
2022/04/12 01:18:11;;;;;;;;;;;20.20;39.80;;;;;;5073822;28;20000;-67
2022/04/12 01:20:37;;;;;;;;;;;20.20;39.80;;;;;;5073015;28;20296;-67
2022/04/12 01:23:13;;;;;;;;;;;20.20;39.70;;;;;;5073875;28;19915;-70
2022/04/12 01:25:39;;;;;;;;;;;20.20;39.90;;;;;;5073818;28;20308;-69
2022/04/12 01:28:05;;;;;;;;;;;20.20;40.10;;;;;;5073365;28;20407;-69
2022/04/12 01:30:31;;;;;;;;;;;20.20;40.10;;;;;;5073218;28;19977;-67
2022/04/12 01:32:56;;;;;;;;;;;20.20;40.40;;;;;;5073567;28;20337;-68
2022/04/12 01:35:22;;;;;;;;;;;20.10;40.30;;;;;;5073449;28;19908;-68
2022/04/12 01:37:47;;;;;;;;;;;20.10;40.30;;;;;;5073131;28;19923;-68
2022/04/12 01:40:13;;;;;;;;;;;20.10;40.50;;;;;;5072688;28;19958;-68
2022/04/12 01:42:39;;;;;;;;;;;20.10;40.70;;;;;;5073046;28;19961;-68
2022/04/12 01:45:05;;;;;;;;;;;20.10;40.30;;;;;;5072996;28;19908;-68
2022/04/12 01:47:30;;;;;;;;;;;20.10;40.30;;;;;;5074231;28;19909;-67
2022/04/12 01:49:56;;;;;;;;;;;20.10;40.30;;;;;;5072611;28;19920;-67
2022/04/12 01:52:22;;;;;;;;;;;20.10;40.50;;;;;;5074375;28;19912;-67
2022/04/12 01:54:48;;;;;;;;;;;20.10;40.70;;;;;;5072780;28;19915;-67
2022/04/12 01:57:13;;;;;;;;;;;20.10;40.60;;;;;;5073296;28;19991;-67
2022/04/12 01:59:39;;;;;;;;;;;20.10;40.50;;;;;;5072133;28;19908;-67
2022/04/12 02:02:05;;;;;;;;;;;20.10;40.80;;;;;;5072922;28;19948;-67
2022/04/12 02:04:30;;;;;;;;;;;20.10;40.70;;;;;;5072544;28;19908;-67
2022/04/12 02:06:56;;;;;;;;;;;20.10;40.80;;;;;;5072750;28;19961;-67
2022/04/12 02:09:21;;;;;;;;;;;20.10;41.00;;;;;;5072223;28;19912;-67
2022/04/12 02:11:47;;;;;;;;;;;20.10;40.80;;;;;;5072130;28;19978;-67
2022/04/12 02:14:12;;;;;;;;;;;20.10;40.70;;;;;;5072529;28;19915;-68
2022/04/12 02:16:38;;;;;;;;;;;20.10;40.60;;;;;;5072414;28;19913;-71
2022/04/12 02:19:03;;;;;;;;;;;20.10;40.60;;;;;;5073246;28;19957;-70
2022/04/12 02:21:29;;;;;;;;;;;20.10;41.00;;;;;;5072043;28;19909;-69
2022/04/12 02:23:54;;;;;;;;;;;20.10;40.80;;;;;;5072460;28;19912;-68
2022/04/12 02:26:20;;;;;;;;;;;20.10;40.90;;;;;;5072626;28;20337;-65
2022/04/12 02:28:46;;;;;;;;;;;20.20;41.60;;;;;;5073336;28;19952;-65
2022/04/12 02:31:11;;;;;;;;;;;20.20;41.40;;;;;;5073825;28;20341;-67
2022/04/12 02:33:37;;;;;;;;;;;20.20;40.90;;;;;;5072348;28;20351;-67
2022/04/12 02:36:02;;;;;;;;;;;20.20;40.90;;;;;;5072455;28;19908;-67
2022/04/12 02:38:28;;;;;;;;;;;20.20;40.70;;;;;;5072122;28;19908;-67
2022/04/12 02:40:53;;;;;;;;;;;20.20;40.90;;;;;;5071897;28;20269;-66
2022/04/12 02:43:19;;;;;;;;;;;20.20;40.70;;;;;;5072302;28;19908;-66
2022/04/12 02:45:45;;;;;;;;;;;20.20;40.90;;;;;;5072121;28;20003;-65
2022/04/12 02:48:11;;;;;;;;;;;20.20;40.70;;;;;;5072328;28;19909;-66
2022/04/12 02:50:37;;;;;;;;;;;20.20;40.80;;;;;;5071575;28;19916;-65
2022/04/12 02:53:03;;;;;;;;;;;20.20;40.40;;;;;;5072233;28;19977;-65
2022/04/12 02:55:28;;;;;;;;;;;20.20;40.70;;;;;;5072010;28;20430;-67
2022/04/12 02:57:54;;;;;;;;;;;20.30;41.00;;;;;;5071542;28;19908;-67
2022/04/12 03:00:19;;;;;;;;;;;20.30;40.90;;;;;;5071751;28;19917;-67
2022/04/12 03:02:45;;;;;;;;;;;20.30;40.80;;;;;;5071872;28;19915;-67
2022/04/12 03:05:10;;;;;;;;;;;20.30;40.40;;;;;;5072103;28;19919;-66
2022/04/12 03:07:36;;;;;;;;;;;20.30;40.60;;;;;;5071805;28;19908;-67
2022/04/12 03:10:02;;;;;;;;;;;20.20;40.30;;;;;;5071507;28;20360;-67
2022/04/12 03:12:28;;;;;;;;;;;20.20;40.30;;;;;;5071506;28;19948;-66
2022/04/12 03:14:53;;;;;;;;;;;20.20;40.50;;;;;;5071786;28;19908;-67
2022/04/12 03:17:19;;;;;;;;;;;20.20;40.30;;;;;;5073669;28;19905;-67
2022/04/12 03:19:44;;;;;;;;;;;20.20;40.70;;;;;;5071368;28;19927;-67
2022/04/12 03:22:10;;;;;;;;;;;20.20;40.30;;;;;;5071932;28;19981;-67
2022/04/12 03:24:36;;;;;;;;;;;20.20;40.30;;;;;;5072888;28;19915;-67
2022/04/12 03:27:01;;;;;;;;;;;20.20;40.40;;;;;;5072070;28;19975;-67
2022/04/12 03:29:27;;;;;;;;;;;20.20;40.40;;;;;;5072986;28;19909;-66
2022/04/12 03:31:53;;;;;;;;;;;20.20;40.50;;;;;;5075798;28;19909;-66
2022/04/12 03:34:19;;;;;;;;;;;20.20;40.40;;;;;;5075889;28;19961;-67
2022/04/12 03:36:45;;;;;;;;;;;20.20;40.40;;;;;;5075961;28;19915;-67
2022/04/12 03:39:17;;;;;;;;;;;20.20;40.40;;;;;;5074977;28;19905;-67
2022/04/12 03:41:43;;;;;;;;;;;20.20;40.30;;;;;;5075644;28;19912;-67
2022/04/12 03:44:08;;;;;;;;;;;20.20;40.50;;;;;;5075493;28;19904;-67
2022/04/12 03:46:34;;;;;;;;;;;20.20;40.40;;;;;;5075859;28;20424;-67
2022/04/12 03:48:59;;;;;;;;;;;20.10;40.40;;;;;;5074707;28;20276;-66
2022/04/12 03:51:25;;;;;;;;;;;20.10;40.30;;;;;;5075553;28;20045;-67
2022/04/12 03:53:50;;;;;;;;;;;20.10;40.30;;;;;;5075084;28;20268;-66
2022/04/12 03:56:16;;;;;;;;;;;20.10;40.40;;;;;;5075263;28;20268;-66
2022/04/12 03:58:42;;;;;;;;;;;20.10;40.40;;;;;;5074824;28;19916;-66
2022/04/12 04:01:07;;;;;;;;;;;20.10;40.40;;;;;;5075259;28;19908;-66
2022/04/12 04:03:35;;;;;;;;;;;20.10;40.50;;;;;;5075637;28;19904;-66
2022/04/12 04:06:01;;;;;;;;;;;20.10;40.70;;;;;;5075376;28;19908;-66
2022/04/12 04:08:27;;;;;;;;;;;20.10;40.60;;;;;;5091406;28;19908;-66
2022/04/12 04:10:52;;;;;;;;;;;20.10;40.90;;;;;;5074197;28;19920;-66
2022/04/12 04:13:18;;;;;;;;;;;20.10;40.90;;;;;;5074857;28;19940;-66
2022/04/12 04:15:45;;;;;;;;;;;20.10;40.90;;;;;;5074762;28;19909;-65
2022/04/12 04:18:11;;;;;;;;;;;20.10;41.00;;;;;;5074487;28;19909;-66
2022/04/12 04:20:36;;;;;;;;;;;20.20;41.00;;;;;;5074162;28;19961;-66
2022/04/12 04:23:02;;;;;;;;;;;20.20;40.80;;;;;;5074250;28;19947;-65
2022/04/12 04:25:28;;;;;;;;;;;20.20;40.80;;;;;;5076259;28;19905;-65
2022/04/12 04:27:54;;;;;;;;;;;20.20;40.70;;;;;;5074484;28;19909;-64
2022/04/12 04:30:20;;;;;;;;;;;20.20;40.80;;;;;;5074304;28;20309;-66
2022/04/12 04:32:46;;;;;;;;;;;20.20;40.50;;;;;;5074244;28;19915;-66
2022/04/12 04:35:13;;;;;;;;;;;20.20;40.70;;;;;;5074654;28;19940;-66
2022/04/12 04:37:46;;;;;;;;;;;20.10;40.50;;;;;;5074553;28;19951;-66
2022/04/12 04:40:16;;;;;;;;;;;20.00;40.40;;;;;;5074193;28;19905;-67
2022/04/12 04:42:42;;;;;;;;;;;20.00;40.20;;;;;;5074577;28;19908;-66
2022/04/12 04:45:08;;;;;;;;;;;20.00;40.30;;;;;;5074662;28;19908;-66
2022/04/12 04:47:34;;;;;;;;;;;20.00;40.30;;;;;;5074265;28;19912;-66
2022/04/12 04:50:01;;;;;;;;;;;19.90;40.10;;;;;;5072472;28;19912;-66
2022/04/12 04:52:26;;;;;;;;;;;19.90;40.00;;;;;;5073688;28;19905;-67
2022/04/12 04:54:52;;;;;;;;;;;19.90;40.00;;;;;;5075134;28;19927;-67
2022/04/12 04:57:18;;;;;;;;;;;19.90;40.00;;;;;;5073711;28;19970;-67
2022/04/12 04:59:43;;;;;;;;;;;19.90;39.90;;;;;;5073207;28;19961;-67
2022/04/12 05:02:09;;;;;;;;;;;19.90;39.80;;;;;;5073572;28;19947;-67
2022/04/12 05:04:34;;;;;;;;;;;19.90;39.90;;;;;;5074154;28;19950;-66
2022/04/12 05:07:00;;;;;;;;;;;19.90;39.80;;;;;;5075556;28;19995;-66
2022/04/12 05:09:25;;;;;;;;;;;19.90;39.80;;;;;;5073605;28;19908;-66
2022/04/12 05:11:51;;;;;;;;;;;20.00;39.90;;;;;;5073932;28;19920;-67
2022/04/12 05:14:16;;;;;;;;;;;20.00;39.80;;;;;;5074055;28;19914;-68
2022/04/12 05:16:42;;;;;;;;;;;20.00;39.70;;;;;;5074029;28;20410;-68
2022/04/12 05:19:07;;;;;;;;;;;20.00;39.70;;;;;;5074911;28;20003;-68
2022/04/12 05:21:33;;;;;;;;;;;20.00;39.80;;;;;;5073872;28;19904;-68
2022/04/12 05:23:58;;;;;;;;;;;20.00;39.70;;;;;;5073840;28;19939;-68
2022/04/12 05:26:24;;;;;;;;;;;20.00;39.70;;;;;;5073826;28;19908;-68
2022/04/12 05:28:49;;;;;;;;;;;20.00;39.60;;;;;;5073352;28;19913;-68
2022/04/12 05:31:15;;;;;;;;;;;20.10;39.70;;;;;;5073510;28;19909;-69
2022/04/12 05:33:40;;;;;;;;;;;20.10;39.80;;;;;;5073693;28;19908;-69
2022/04/12 05:36:06;;;;;;;;;;;20.10;39.70;;;;;;5073606;28;20344;-69
2022/04/12 05:38:31;;;;;;;;;;;20.10;39.60;;;;;;5073281;28;20349;-69
2022/04/12 05:40:57;;;;;;;;;;;20.10;39.60;;;;;;5073396;28;20345;-69
2022/04/12 05:43:22;;;;;;;;;;;20.10;39.50;;;;;;5073457;28;19912;-66
2022/04/12 05:45:48;;;;;;;;;;;20.20;39.60;;;;;;5073383;28;19904;-66
2022/04/12 05:48:13;;;;;;;;;;;20.20;39.50;;;;;;5073372;28;20420;-67
2022/04/12 05:50:39;;;;;;;;;;;20.30;39.40;;;;;;5072747;28;19965;-67
2022/04/12 05:53:04;;;;;;;;;;;20.40;39.20;;;;;;5072723;28;19911;-66
2022/04/12 05:55:30;;;;;;;;;;;20.50;39.10;;;;;;5073246;28;19905;-66
2022/04/12 05:57:57;;;;;;;;;;;20.50;39.10;;;;;;5073199;28;19927;-67
2022/04/12 06:00:23;;;;;;;;;;;20.50;39.10;;;;;;5072689;28;20332;-67
2022/04/12 06:02:50;;;;;;;;;;;20.60;39.20;;;;;;5073028;28;19912;-67
2022/04/12 06:05:15;;;;;;;;;;;20.60;39.20;;;;;;5074500;28;20359;-67
2022/04/12 06:07:41;;;;;;;;;;;20.60;39.20;;;;;;5073093;28;19908;-66
2022/04/12 06:10:08;;;;;;;;;;;20.60;39.10;;;;;;5072413;28;20353;-67
2022/04/12 06:12:33;;;;;;;;;;;20.70;39.20;;;;;;5072428;28;19912;-67
2022/04/12 06:14:59;;;;;;;;;;;20.70;39.10;;;;;;5076868;28;20385;-67
2022/04/12 06:17:29;;;;;;;;;;;20.70;39.20;;;;;;5088679;28;19907;-68
2022/04/12 06:19:58;;;;;;;;;;;20.70;39.20;;;;;;5091674;28;20473;-66
2022/04/12 06:22:23;;;;;;;;;;;20.80;39.20;;;;;;5091885;28;20403;-70
2022/04/12 06:24:49;;;;;;;;;;;20.90;39.30;;;;;;5092801;28;19961;-68
2022/04/12 06:27:14;;;;;;;;;;;20.90;39.20;;;;;;5092877;28;19904;-69
2022/04/12 06:29:40;;;;;;;;;;;21.00;39.00;;;;;;5092338;28;20283;-68
2022/04/12 06:32:05;;;;;;;;;;;21.10;39.10;;;;;;5094036;28;19904;-68
2022/04/12 06:34:31;;;;;;;;;;;21.10;39.00;;;;;;5092868;28;19911;-68
2022/04/12 06:36:56;;;;;;;;;;;21.20;39.20;;;;;;5092820;28;20462;-69
2022/04/12 06:39:22;;;;;;;;;;;21.20;38.80;;;;;;5092219;28;20002;-69
2022/04/12 06:41:47;;;;;;;;;;;21.20;38.70;;;;;;5092537;28;19904;-68
2022/04/12 06:44:13;;;;;;;;;;;21.20;39.00;;;;;;5092586;28;20003;-69
2022/04/12 06:46:38;;;;;;;;;;;21.20;39.00;;;;;;5094036;28;19995;-69
2022/04/12 06:49:04;;;;;;;;;;;21.20;38.90;;;;;;5092189;28;19999;-68
2022/04/12 06:51:29;;;;;;;;;;;21.20;38.90;;;;;;5092540;28;20011;-66
2022/04/12 06:53:55;;;;;;;;;;;21.30;39.30;;;;;;5092623;28;19904;-67
2022/04/12 06:56:20;;;;;;;;;;;21.30;39.50;;;;;;5092627;28;20312;-68
2022/04/12 06:58:46;;;;;;;;;;;21.40;39.60;;;;;;5092144;28;20370;-64
2022/04/12 07:01:11;;;;;;;;;;;21.40;39.60;;;;;;5092388;28;19965;-63
2022/04/12 07:03:37;;;;;;;;;;;21.40;39.60;;;;;;5093645;28;19923;-64
2022/04/12 07:06:02;;;;;;;;;;;21.50;39.50;;;;;;5092458;28;19915;-64
2022/04/12 07:08:28;;;;;;;;;;;21.40;39.70;;;;;;5091977;28;19904;-64
2022/04/12 07:10:53;;;;;;;;;;;21.50;39.60;;;;;;5091876;28;19908;-64
2022/04/12 07:13:19;;;;;;;;;;;21.50;39.40;;;;;;5092465;28;19911;-64
2022/04/12 07:15:46;;;;;;;;;;;21.50;39.60;;;;;;5092168;28;19904;-65
2022/04/12 07:18:11;;;;;;;;;;;21.50;39.60;;;;;;5093638;28;19904;-63
2022/04/12 07:20:37;;;;;;;;;;;21.50;39.70;;;;;;5091767;28;19915;-64
2022/04/12 07:23:03;;;;;;;;;;;21.60;39.80;;;;;;5091869;28;19904;-65
2022/04/12 07:25:28;;;;;;;;;;;21.70;40.10;;;;;;5091947;28;19911;-65
2022/04/12 07:27:53;;;;;;;;;;;21.70;39.00;;;;;;5091883;28;19947;-65
2022/04/12 07:30:19;;;;;;;;;;;21.70;38.00;;;;;;5091655;28;19912;-64
2022/04/12 07:32:44;;;;;;;;;;;21.70;37.80;;;;;;5091688;28;19910;-65
2022/04/12 07:35:10;;;;;;;;;;;21.70;38.30;;;;;;5091876;28;20360;-63
2022/04/12 07:37:35;;;;;;;;;;;21.70;37.70;;;;;;5091859;28;19904;-64
2022/04/12 07:40:02;;;;;;;;;;;21.70;37.60;;;;;;5091445;28;19911;-65
2022/04/12 07:42:27;;;;;;;;;;;21.70;36.90;;;;;;5091700;28;19957;-62
2022/04/12 07:44:53;;;;;;;;;;;21.70;37.60;;;;;;5091798;28;19908;-67
2022/04/12 07:47:18;;;;;;;;;;;21.70;37.20;;;;;;5091753;28;19943;-63
2022/04/12 07:49:44;;;;;;;;;;;21.80;37.60;;;;;;5091265;28;20304;-65
2022/04/12 07:52:09;;;;;;;;;;;21.80;37.30;;;;;;5092909;28;19904;-65
2022/04/12 07:54:35;;;;;;;;;;;21.80;37.20;;;;;;5091660;28;19904;-70
2022/04/12 07:57:00;;;;;;;;;;;21.80;37.50;;;;;;5091596;28;19915;-72
2022/04/12 07:59:26;;;;;;;;;;;21.80;37.20;;;;;;5091264;28;19927;-68
2022/04/12 08:01:51;;;;;;;;;;;21.90;37.20;;;;;;5091534;28;19926;-72
2022/04/12 08:04:17;;;;;;;;;;;21.80;37.20;;;;;;5091590;28;19950;-71
2022/04/12 08:06:42;;;;;;;;;;;21.90;37.00;;;;;;5091488;28;19910;-72
2022/04/12 08:09:09;;;;;;;;;;;21.90;37.10;;;;;;5091075;28;19961;-72
2022/04/12 08:11:35;;;;;;;;;;;21.80;37.10;;;;;;5091330;28;19947;-69
2022/04/12 08:14:00;;;;;;;;;;;21.90;37.20;;;;;;5091406;28;19908;-69
2022/04/12 08:16:26;;;;;;;;;;;21.90;37.80;;;;;;5094662;28;20343;-67
2022/04/12 08:18:51;;;;;;;;;;;21.80;37.00;;;;;;5094875;28;19998;-69
2022/04/12 08:21:33;;;;;;;;;;;21.90;37.00;;;;;;5094922;28;19931;-70
2022/04/12 08:23:59;;;;;;;;;;;22.00;36.90;;;;;;5094978;28;20419;-69
2022/04/12 08:26:25;;;;;;;;;;;22.10;37.20;;;;;;5095029;28;19936;-69
2022/04/12 08:28:50;;;;;;;;;;;22.00;36.90;;;;;;5094643;28;20010;-70
2022/04/12 08:31:16;;;;;;;;;;;22.00;36.80;;;;;;5094822;28;19947;-69
2022/04/12 08:33:41;;;;;;;;;;;22.00;36.80;;;;;;5094826;28;19911;-69
2022/04/12 08:36:07;;;;;;;;;;;22.00;36.90;;;;;;5094842;28;19904;-69
2022/04/12 08:38:32;;;;;;;;;;;22.00;36.90;;;;;;5094531;28;19911;-70
2022/04/12 08:40:58;;;;;;;;;;;22.10;37.30;;;;;;5094584;28;20266;-70
2022/04/12 08:43:26;;;;;;;;;;;22.10;37.10;;;;;;5094793;28;19904;-69
2022/04/12 08:45:52;;;;;;;;;;;22.10;37.20;;;;;;5094655;28;19904;-69
2022/04/12 08:48:18;;;;;;;;;;;22.10;37.10;;;;;;5094619;28;20318;-69
2022/04/12 08:50:43;;;;;;;;;;;22.10;37.30;;;;;;5094063;28;19912;-71
2022/04/12 08:53:10;;;;;;;;;;;22.10;37.50;;;;;;5094441;28;19904;-66
2022/04/12 08:55:36;;;;;;;;;;;22.20;37.90;;;;;;5094422;28;20394;-66
2022/04/12 08:58:01;;;;;;;;;;;22.20;37.70;;;;;;5094609;28;19999;-65
2022/04/12 09:00:27;;;;;;;;;;;22.20;38.50;;;;;;5094319;28;19903;-67
2022/04/12 09:02:57;;;;;;;;;;;22.20;38.30;;;;;;5094377;28;19913;-67
2022/04/12 09:05:23;;;;;;;;;;;22.20;38.60;;;;;;5094179;28;19904;-65
2022/04/12 09:07:48;;;;;;;;;;;22.30;38.60;;;;;;5094154;28;19904;-65
2022/04/12 09:10:14;;;;;;;;;;;22.30;38.20;;;;;;5093761;28;19908;-67
2022/04/12 09:12:40;;;;;;;;;;;22.30;38.10;;;;;;5093952;28;19919;-66
2022/04/12 09:15:09;;;;;;;;;;;22.40;38.40;;;;;;5094017;28;19904;-65
2022/04/12 09:17:36;;;;;;;;;;;22.40;38.30;;;;;;5093992;28;19953;-64
2022/04/12 09:20:03;;;;;;;;;;;22.40;38.20;;;;;;5093650;28;19908;-66
2022/04/12 09:22:28;;;;;;;;;;;22.50;38.20;;;;;;5093839;28;19904;-65
2022/04/12 09:24:56;;;;;;;;;;;22.50;38.00;;;;;;5093884;28;19911;-65
2022/04/12 09:27:23;;;;;;;;;;;22.60;38.10;;;;;;5092824;28;19904;-66
2022/04/12 09:29:50;;;;;;;;;;;22.60;37.90;;;;;;5093374;28;19908;-66
2022/04/12 09:32:18;;;;;;;;;;;22.60;37.80;;;;;;5093699;28;19957;-65
2022/04/12 09:34:44;;;;;;;;;;;22.70;37.80;;;;;;5093658;28;19904;-65
2022/04/12 09:37:17;;;;;;;;;;;22.70;37.80;;;;;;5093693;28;19904;-66
2022/04/12 09:39:45;;;;;;;;;;;22.70;37.80;;;;;;5093245;28;19904;-66
2022/04/12 09:42:11;;;;;;;;;;;22.70;37.80;;;;;;5094799;28;19904;-66
2022/04/12 09:44:36;;;;;;;;;;;22.70;37.70;;;;;;5093586;28;19947;-66
2022/04/12 09:47:02;;;;;;;;;;;22.70;37.70;;;;;;5093508;28;20015;-64
2022/04/12 09:49:41;;;;;;;;;;;22.80;37.70;;;;;;5092971;28;20313;-66
2022/04/12 09:52:10;;;;;;;;;;;22.90;37.60;;;;;;5093396;28;19911;-65
2022/04/12 09:54:35;;;;;;;;;;;22.90;37.60;;;;;;5093391;28;19911;-65
2022/04/12 09:57:03;;;;;;;;;;;22.90;37.60;;;;;;5093292;28;19904;-66
2022/04/12 09:59:32;;;;;;;;;;;22.90;37.60;;;;;;5092811;28;19954;-66
2022/04/12 10:01:59;;;;;;;;;;;22.90;37.60;;;;;;5093145;28;19915;-66
2022/04/12 10:04:24;;;;;;;;;;;22.90;37.60;;;;;;5093062;28;20392;-67
2022/04/12 10:06:51;;;;;;;;;;;22.90;37.70;;;;;;5093081;28;19939;-65
2022/04/12 10:09:20;;;;;;;;;;;22.90;37.70;;;;;;5092516;28;19961;-66
2022/04/12 10:11:47;;;;;;;;;;;22.90;37.60;;;;;;5092759;28;19935;-66
2022/04/12 10:14:14;;;;;;;;;;;22.90;37.60;;;;;;5092944;28;19957;-66
2022/04/12 10:16:40;;;;;;;;;;;22.90;37.60;;;;;;5092854;28;19904;-65
2022/04/12 10:19:06;;;;;;;;;;;22.90;37.60;;;;;;5092488;28;19990;-66
2022/04/12 10:21:32;;;;;;;;;;;22.90;37.60;;;;;;5094022;28;20379;-64
2022/04/12 10:23:59;;;;;;;;;;;22.90;37.80;;;;;;5092797;28;20387;-66
2022/04/12 10:26:25;;;;;;;;;;;22.80;37.80;;;;;;5092727;28;19911;-65
2022/04/12 10:28:52;;;;;;;;;;;22.80;37.90;;;;;;5092189;28;19908;-65
2022/04/12 10:31:19;;;;;;;;;;;22.80;37.80;;;;;;5092462;28;19908;-66
2022/04/12 10:34:03;;;;;;;;;;;22.80;37.90;;;;;;5092589;28;20416;-65
2022/04/12 10:36:47;;;;;;;;;;;22.70;37.90;;;;;;5092585;28;20379;-65
2022/04/12 10:39:13;;;;;;;;;;;22.70;38.00;;;;;;5087859;28;19907;-66
2022/04/12 10:41:42;;;;;;;;;;;22.70;38.00;;;;;;5081090;28;19909;-66
2022/04/12 10:44:17;;;;;;;;;;;22.70;38.10;;;;;;5070556;28;19908;-66
2022/04/12 10:46:47;;;;;;;;;;;22.60;38.10;;;;;;5060395;28;19909;-65
2022/04/12 10:49:16;;;;;;;;;;;22.60;38.10;;;;;;5068029;28;19913;-65
2022/04/12 10:51:41;;;;;;;;;;;22.60;38.20;;;;;;5068734;28;19911;-66
2022/04/12 10:54:25;;;;;;;;;;;22.60;38.20;;;;;;5070185;28;20348;-66
2022/04/12 10:57:11;;;;;;;;;;;22.60;38.30;;;;;;5068195;28;19912;-65
2022/04/12 10:59:40;;;;;;;;;;;22.60;38.30;;;;;;5071884;28;19912;-66
2022/04/12 11:02:11;;;;;;;;;;;22.50;38.40;;;;;;5073281;28;19904;-67
2022/04/12 11:04:37;;;;;;;;;;;22.50;38.40;;;;;;5053956;28;19905;-64
2022/04/12 11:07:05;;;;;;;;;;;22.50;38.40;;;;;;5061394;28;20249;-65
2022/04/12 11:09:31;;;;;;;;;;;22.50;38.40;;;;;;5072852;28;20284;-65
2022/04/12 11:12:01;;;;;;;;;;;22.50;38.40;;;;;;5070762;28;19916;-66
2022/04/12 11:14:32;;;;;;;;;;;22.50;38.50;;;;;;5072847;28;19915;-66
2022/04/12 11:17:01;;;;;;;;;;;22.50;38.50;;;;;;5083820;28;19912;-66
2022/04/12 11:19:27;;;;;;;;;;;22.50;38.50;;;;;;5074485;28;19908;-64
2022/04/12 11:21:56;;;;;;;;;;;22.40;38.40;;;;;;5080116;28;19904;-65
2022/04/12 11:24:22;;;;;;;;;;;22.40;38.60;;;;;;5076127;28;19930;-65
2022/04/12 11:26:50;;;;;;;;;;;22.40;38.60;;;;;;5080190;28;19905;-65
2022/04/12 11:29:21;;;;;;;;;;;22.40;38.60;;;;;;5071571;28;19908;-65
2022/04/12 11:31:54;;;;;;;;;;;22.40;38.60;;;;;;5075567;28;19915;-64
2022/04/12 11:34:20;;;;;;;;;;;22.40;39.30;;;;;;5083669;28;19998;-65
2022/04/12 11:36:52;;;;;;;;;;;22.40;38.60;;;;;;5091536;28;19977;-64
2022/04/12 11:39:19;;;;;;;;;;;22.40;38.70;;;;;;5078124;28;19919;-65
2022/04/12 11:41:44;;;;;;;;;;;22.40;38.70;;;;;;5071131;28;20007;-65
2022/04/12 11:44:10;;;;;;;;;;;22.40;38.70;;;;;;5077269;28;19998;-65
2022/04/12 11:46:36;;;;;;;;;;;22.40;38.70;;;;;;5060453;28;19916;-64
2022/04/12 11:49:06;;;;;;;;;;;22.40;38.80;;;;;;5055277;28;19908;-65
2022/04/12 11:51:36;;;;;;;;;;;22.40;38.80;;;;;;5074538;28;19999;-66
2022/04/12 11:54:01;;;;;;;;;;;22.30;38.60;;;;;;5054893;28;19966;-66
2022/04/12 11:56:28;;;;;;;;;;;22.30;38.80;;;;;;5055146;28;19983;-66
2022/04/12 11:58:53;;;;;;;;;;;22.30;38.80;;;;;;5053869;28;19905;-64
2022/04/12 12:01:31;;;;;;;;;;;22.30;38.70;;;;;;5055000;28;20371;-66
2022/04/12 12:04:04;;;;;;;;;;;22.30;38.90;;;;;;5054121;28;19904;-66
2022/04/12 12:06:29;;;;;;;;;;;22.30;38.70;;;;;;5055222;28;20315;-64
2022/04/12 12:08:55;;;;;;;;;;;22.30;38.80;;;;;;5054794;28;20360;-64
2022/04/12 12:11:22;;;;;;;;;;;22.30;38.80;;;;;;5054676;28;20360;-66
2022/04/12 12:13:57;;;;;;;;;;;22.30;38.80;;;;;;5055069;28;19927;-66
2022/04/12 12:16:23;;;;;;;;;;;22.30;38.80;;;;;;5054977;28;20368;-66
2022/04/12 12:18:49;;;;;;;;;;;22.30;39.50;;;;;;5054775;28;19905;-65
2022/04/12 12:21:18;;;;;;;;;;;22.30;38.80;;;;;;5060397;28;19908;-65
2022/04/12 12:23:44;;;;;;;;;;;22.20;38.80;;;;;;5073014;28;19908;-67
2022/04/12 12:26:10;;;;;;;;;;;22.20;38.90;;;;;;5057347;28;20384;-65
2022/04/12 12:28:39;;;;;;;;;;;22.20;38.80;;;;;;5059890;28;20268;-66
2022/04/12 12:31:07;;;;;;;;;;;22.20;38.80;;;;;;5054754;28;19915;-66
2022/04/12 12:33:37;;;;;;;;;;;22.20;38.80;;;;;;5054849;28;20337;-66
2022/04/12 12:36:03;;;;;;;;;;;22.20;38.80;;;;;;5054788;28;20273;-64
2022/04/12 12:38:28;;;;;;;;;;;22.20;38.90;;;;;;5055835;28;19905;-65
2022/04/12 12:40:57;;;;;;;;;;;22.20;38.90;;;;;;5054250;28;19901;-65
2022/04/12 12:43:25;;;;;;;;;;;22.20;38.90;;;;;;5054801;28;19947;-66
2022/04/12 12:45:50;;;;;;;;;;;22.20;38.90;;;;;;5054676;28;20389;-64
2022/04/12 12:48:16;;;;;;;;;;;22.20;39.00;;;;;;5054651;28;20423;-64
2022/04/12 12:50:43;;;;;;;;;;;22.10;38.90;;;;;;5053917;28;20260;-66
2022/04/12 12:53:09;;;;;;;;;;;22.20;39.00;;;;;;5054523;28;19905;-66
2022/04/12 12:55:38;;;;;;;;;;;22.10;38.80;;;;;;5054547;28;19955;-66
2022/04/12 12:58:07;;;;;;;;;;;22.10;38.90;;;;;;5054395;28;19962;-66
2022/04/12 13:00:33;;;;;;;;;;;22.10;38.90;;;;;;5053610;28;19935;-65
2022/04/12 13:03:05;;;;;;;;;;;22.10;38.90;;;;;;5054355;28;19905;-64
2022/04/12 13:05:31;;;;;;;;;;;22.10;38.90;;;;;;5054270;28;19947;-65
2022/04/12 13:07:58;;;;;;;;;;;22.10;39.00;;;;;;5054292;28;19985;-65
2022/04/12 13:10:24;;;;;;;;;;;22.10;38.80;;;;;;5053511;28;19915;-63
2022/04/12 13:12:51;;;;;;;;;;;22.10;39.00;;;;;;5053924;28;19958;-63
2022/04/12 13:15:16;;;;;;;;;;;22.10;39.00;;;;;;5054075;28;19905;-65
2022/04/12 13:17:42;;;;;;;;;;;22.10;38.90;;;;;;5055465;28;19912;-65
2022/04/12 13:20:09;;;;;;;;;;;22.10;39.00;;;;;;5053494;28;19905;-65
2022/04/12 13:22:35;;;;;;;;;;;22.10;39.00;;;;;;5053898;28;19908;-65
2022/04/12 13:25:01;;;;;;;;;;;22.00;39.00;;;;;;5053967;28;19911;-66
2022/04/12 13:27:26;;;;;;;;;;;22.00;38.80;;;;;;5053996;28;19904;-65
2022/04/12 13:29:52;;;;;;;;;;;22.00;39.00;;;;;;5053803;28;19915;-64
2022/04/12 13:32:18;;;;;;;;;;;22.00;39.00;;;;;;5054235;28;19912;-64
2022/04/12 13:34:44;;;;;;;;;;;22.00;39.10;;;;;;5053808;28;19905;-66
2022/04/12 13:37:09;;;;;;;;;;;22.00;38.90;;;;;;5069154;28;19904;-65
2022/04/12 13:39:35;;;;;;;;;;;22.00;39.00;;;;;;5072676;28;19900;-64
2022/04/12 13:42:01;;;;;;;;;;;22.00;39.10;;;;;;5073226;28;20274;-64
2022/04/12 13:44:27;;;;;;;;;;;22.00;39.10;;;;;;5071541;28;19904;-65
2022/04/12 13:46:52;;;;;;;;;;;22.00;39.10;;;;;;5071671;28;20406;-65
2022/04/12 13:49:18;;;;;;;;;;;22.00;39.00;;;;;;5068459;28;19912;-64
2022/04/12 13:51:44;;;;;;;;;;;22.00;39.10;;;;;;5082985;28;19915;-65
2022/04/12 13:54:09;;;;;;;;;;;21.90;39.00;;;;;;5073270;28;19951;-66
2022/04/12 13:56:35;;;;;;;;;;;21.90;39.00;;;;;;5092951;22;19924;-74
2022/04/12 13:59:01;;;;;;;;;;;22.00;38.90;;;;;;5071584;28;19912;-73
2022/04/12 14:01:26;;;;;;;;;;;21.90;39.00;;;;;;5072179;28;19908;-74
2022/04/12 14:03:52;;;;;;;;;;;21.90;39.10;;;;;;5072180;28;19951;-73
2022/04/12 14:06:17;;;;;;;;;;;22.00;39.10;;;;;;5072054;28;20425;-73
2022/04/12 14:08:43;;;;;;;;;;;21.90;39.00;;;;;;5070625;28;19909;-73
2022/04/12 14:11:11;;;;;;;;;;;21.90;39.00;;;;;;5071841;28;19904;-74
2022/04/12 14:13:41;;;;;;;;;;;21.90;39.10;;;;;;5071409;28;20349;-73